createdAt,value
2019-05-01T00:01:06.261Z,4.20
2019-05-01T00:03:36.523Z,4.13
2019-05-01T00:06:06.788Z,4.20
2019-05-01T00:08:35.414Z,4.40
2019-05-01T00:11:04.015Z,5.03
2019-05-01T00:13:32.669Z,4.60
2019-05-01T00:16:01.330Z,5.00
2019-05-01T00:18:29.998Z,5.90
2019-05-01T00:20:58.894Z,4.90
2019-05-01T00:23:27.499Z,5.27
2019-05-01T00:25:56.175Z,5.43
2019-05-01T00:28:24.843Z,5.80
2019-05-01T00:30:53.538Z,5.33
2019-05-01T00:33:22.142Z,5.57
2019-05-01T00:35:50.779Z,5.23
2019-05-01T00:38:19.366Z,5.73
2019-05-01T00:40:48.032Z,6.07
2019-05-01T00:43:16.699Z,6.20
2019-05-01T00:45:45.318Z,6.57
2019-05-01T00:48:14.013Z,7.17
2019-05-01T00:50:42.602Z,6.87
2019-05-01T00:53:11.411Z,7.40
2019-05-01T00:55:53.967Z,7.07
2019-05-01T00:58:33.399Z,7.43
2019-05-01T01:01:20.155Z,7.93
2019-05-01T01:03:48.852Z,8.17
2019-05-01T01:06:17.528Z,8.33
2019-05-01T01:08:46.227Z,9.40
2019-05-01T01:11:14.838Z,8.87
2019-05-01T01:13:43.436Z,9.00
2019-05-01T01:16:12.071Z,8.90
2019-05-01T01:18:40.686Z,9.00
2019-05-01T01:21:09.383Z,9.63
2019-05-01T01:23:37.992Z,9.77
2019-05-01T01:26:07.779Z,9.80
2019-05-01T01:28:36.386Z,9.73
2019-05-01T01:31:05.307Z,10.10
2019-05-01T01:33:33.907Z,10.13
2019-05-01T01:36:02.659Z,10.53
2019-05-01T01:38:31.266Z,9.67
2019-05-01T01:41:00.199Z,9.77
2019-05-01T01:43:46.835Z,10.13
2019-05-01T01:46:32.129Z,9.70
2019-05-01T01:49:00.734Z,9.57
2019-05-01T01:51:29.703Z,9.80
2019-05-01T01:53:59.124Z,10.13
2019-05-01T01:56:28.006Z,10.23
2019-05-01T01:58:57.303Z,9.83
2019-05-01T02:01:43.785Z,9.90
2019-05-01T02:04:19.910Z,10.53
2019-05-01T02:06:50.426Z,10.97
2019-05-01T02:09:19.021Z,9.67
2019-05-01T02:11:48.528Z,10.80
2019-05-01T02:14:17.267Z,10.00
2019-05-01T02:16:45.869Z,9.57
2019-05-01T02:19:16.039Z,10.20
2019-05-01T02:21:44.723Z,10.10
2019-05-01T02:24:13.332Z,9.43
2019-05-01T02:26:43.855Z,10.20
2019-05-01T02:29:26.486Z,10.53
2019-05-01T02:31:56.783Z,9.93
2019-05-01T02:34:27.186Z,9.87
2019-05-01T02:36:58.989Z,9.97
2019-05-01T02:39:29.600Z,10.20
2019-05-01T02:42:01.232Z,8.77
2019-05-01T02:44:42.226Z,10.10
2019-05-01T02:47:13.843Z,9.43
2019-05-01T02:49:48.439Z,9.40
2019-05-01T02:52:17.870Z,10.23
2019-05-01T02:54:48.286Z,10.20
2019-05-01T02:57:20.539Z,10.27
2019-05-01T02:59:51.790Z,10.67
2019-05-01T03:02:23.608Z,10.27
2019-05-01T03:04:54.081Z,10.10
2019-05-01T03:07:25.055Z,10.50
2019-05-01T03:09:54.293Z,10.80
2019-05-01T03:12:25.258Z,11.13
2019-05-01T03:14:56.005Z,10.97
2019-05-01T03:17:41.683Z,10.97
2019-05-01T03:20:20.971Z,11.00
2019-05-01T03:23:08.276Z,11.33
2019-05-01T03:25:37.243Z,10.70
2019-05-01T03:28:26.670Z,10.87
2019-05-01T03:30:55.488Z,11.27
2019-05-01T03:33:24.559Z,11.37
2019-05-01T03:35:53.499Z,11.17
2019-05-01T03:38:22.602Z,10.50
2019-05-01T03:40:51.688Z,11.33
2019-05-01T03:43:20.421Z,10.57
2019-05-01T03:45:49.446Z,11.10
2019-05-01T03:48:18.683Z,10.73
2019-05-01T03:50:47.910Z,10.57
2019-05-01T03:53:17.316Z,11.00
2019-05-01T03:55:46.388Z,10.77
2019-05-01T03:58:15.403Z,10.57
2019-05-01T04:00:48.483Z,11.10
2019-05-01T04:03:35.400Z,11.33
2019-05-01T04:06:04.213Z,11.47
2019-05-01T04:08:33.527Z,11.17
2019-05-01T04:11:02.314Z,11.20
2019-05-01T04:13:31.643Z,11.73
2019-05-01T04:16:00.682Z,11.73
2019-05-01T04:18:29.694Z,11.13
2019-05-01T04:20:59.037Z,11.43
2019-05-01T04:23:28.744Z,11.73
2019-05-01T04:25:57.482Z,10.90
2019-05-01T04:28:37.167Z,11.43
2019-05-01T04:31:24.010Z,11.50
2019-05-01T04:33:54.780Z,10.97
2019-05-01T04:36:37.003Z,11.47
2019-05-01T04:39:07.995Z,11.03
2019-05-01T04:41:37.038Z,11.03
2019-05-01T04:44:05.758Z,11.43
2019-05-01T04:46:35.148Z,11.27
2019-05-01T04:49:04.212Z,11.23
2019-05-01T04:51:33.218Z,11.30
2019-05-01T04:54:02.017Z,11.83
2019-05-01T04:56:30.717Z,11.40
2019-05-01T04:59:00.111Z,11.33
2019-05-01T05:01:30.627Z,11.80
2019-05-01T05:03:59.626Z,11.23
2019-05-01T05:06:28.372Z,10.77
2019-05-01T05:08:57.569Z,10.97
2019-05-01T05:11:30.752Z,11.17
2019-05-01T05:14:07.244Z,10.73
2019-05-01T05:16:54.279Z,10.10
2019-05-01T05:19:23.083Z,11.40
2019-05-01T05:21:52.224Z,10.97
2019-05-01T05:24:21.022Z,11.67
2019-05-01T05:26:50.027Z,11.00
2019-05-01T05:29:19.962Z,11.00
2019-05-01T05:31:49.784Z,10.73
2019-05-01T05:34:20.556Z,9.80
2019-05-01T05:36:51.228Z,10.70
2019-05-01T05:39:23.548Z,10.43
2019-05-01T05:41:54.183Z,10.10
2019-05-01T05:44:23.673Z,10.03
2019-05-01T05:46:52.338Z,10.50
2019-05-01T05:49:21.167Z,10.37
2019-05-01T05:51:52.998Z,10.43
2019-05-01T05:54:40.050Z,10.07
2019-05-01T05:57:15.775Z,10.30
2019-05-01T05:59:53.479Z,9.73
2019-05-01T06:02:26.079Z,9.73
2019-05-01T06:05:01.567Z,9.63
2019-05-01T06:07:37.347Z,9.23
2019-05-01T06:10:23.115Z,9.00
2019-05-01T06:12:55.662Z,8.77
2019-05-01T06:15:26.743Z,9.27
2019-05-01T06:17:59.095Z,9.03
2019-05-01T06:20:28.951Z,8.90
2019-05-01T06:23:07.038Z,9.00
2019-05-01T06:25:42.774Z,8.30
2019-05-01T06:28:12.574Z,8.67
2019-05-01T06:30:42.135Z,8.83
2019-05-01T06:33:11.948Z,9.23
2019-05-01T06:35:40.600Z,9.27
2019-05-01T06:38:15.136Z,9.13
2019-05-01T06:40:46.695Z,8.90
2019-05-01T06:43:25.371Z,8.80
2019-05-01T06:45:55.031Z,9.03
2019-05-01T06:48:28.131Z,8.43
2019-05-01T06:51:17.693Z,9.57
2019-05-01T06:53:45.570Z,9.30
2019-05-01T06:56:14.188Z,9.20
2019-05-01T06:58:42.867Z,8.57
2019-05-01T07:01:13.725Z,9.13
2019-05-01T07:03:47.014Z,9.47
2019-05-01T07:06:14.300Z,9.13
2019-05-01T07:08:42.701Z,9.90
2019-05-01T07:11:15.597Z,9.50
2019-05-01T07:13:55.834Z,9.23
2019-05-01T07:16:24.690Z,9.77
2019-05-01T07:18:57.966Z,9.53
2019-05-01T07:21:27.699Z,9.37
2019-05-01T07:23:55.916Z,9.57
2019-05-01T07:26:24.594Z,9.50
2019-05-01T07:28:54.992Z,10.17
2019-05-01T07:31:25.922Z,9.77
2019-05-01T07:33:54.190Z,9.37
2019-05-01T07:36:22.805Z,9.50
2019-05-01T07:38:51.548Z,10.30
2019-05-01T07:41:20.255Z,12.20
2019-05-01T07:43:54.828Z,13.23
2019-05-01T07:46:26.014Z,12.97
2019-05-01T07:48:54.918Z,12.97
2019-05-01T07:51:23.523Z,10.57
2019-05-01T07:53:52.373Z,10.33
2019-05-01T07:56:22.778Z,10.57
2019-05-01T07:58:53.408Z,9.37
2019-05-01T08:01:23.774Z,9.97
2019-05-01T08:03:52.426Z,9.73
2019-05-01T08:06:22.780Z,9.03
2019-05-01T08:08:51.567Z,9.37
2019-05-01T08:11:20.287Z,9.63
2019-05-01T08:13:48.959Z,8.70
2019-05-01T08:16:17.658Z,9.30
2019-05-01T08:18:47.994Z,9.20
2019-05-01T08:21:26.041Z,10.17
2019-05-01T08:23:55.597Z,11.10
2019-05-01T08:26:24.380Z,13.47
2019-05-01T08:29:11.213Z,14.90
2019-05-01T08:31:43.955Z,15.80
2019-05-01T08:34:25.306Z,16.00
2019-05-01T08:36:53.826Z,15.60
2019-05-01T08:39:22.530Z,16.90
2019-05-01T08:41:51.230Z,17.03
2019-05-01T08:44:24.907Z,17.83
2019-05-01T08:47:11.972Z,18.57
2019-05-01T08:49:54.314Z,18.63
2019-05-01T08:52:22.993Z,17.47
2019-05-01T08:54:54.540Z,18.23
2019-05-01T08:57:22.091Z,16.87
2019-05-01T08:59:50.768Z,19.03
2019-05-01T09:02:19.480Z,18.27
2019-05-01T09:04:48.093Z,18.07
2019-05-01T09:07:19.187Z,18.20
2019-05-01T09:09:50.363Z,18.50
2019-05-01T09:12:19.048Z,17.10
2019-05-01T09:14:47.729Z,17.60
2019-05-01T09:17:16.369Z,17.63
2019-05-01T09:19:45.122Z,17.23
2019-05-01T09:22:13.762Z,17.33
2019-05-01T09:24:42.449Z,16.57
2019-05-01T09:27:29.270Z,16.67
2019-05-01T09:29:56.718Z,14.73
2019-05-01T09:32:25.405Z,12.53
2019-05-01T09:34:54.129Z,11.73
2019-05-01T09:37:22.822Z,11.23
2019-05-01T09:39:51.468Z,11.10
2019-05-01T09:42:23.871Z,11.73
2019-05-01T09:44:50.618Z,11.50
2019-05-01T09:47:19.508Z,11.77
2019-05-01T09:49:48.855Z,11.97
2019-05-01T09:52:24.825Z,11.87
2019-05-01T09:54:58.318Z,12.07
2019-05-01T09:57:27.023Z,12.17
2019-05-01T09:59:55.631Z,11.87
2019-05-01T10:02:24.325Z,12.07
2019-05-01T10:04:53.028Z,12.37
2019-05-01T10:07:24.020Z,11.77
2019-05-01T10:09:52.438Z,11.67
2019-05-01T10:12:22.375Z,12.23
2019-05-01T10:14:51.042Z,12.00
2019-05-01T10:17:19.694Z,11.90
2019-05-01T10:19:50.182Z,12.47
2019-05-01T10:22:18.725Z,11.20
2019-05-01T10:24:47.461Z,12.17
2019-05-01T10:27:17.759Z,12.27
2019-05-01T10:30:04.551Z,11.23
2019-05-01T10:32:34.913Z,11.97
2019-05-01T10:35:08.278Z,12.07
2019-05-01T10:37:36.943Z,11.83
2019-05-01T10:40:07.116Z,12.53
2019-05-01T10:42:35.849Z,12.77
2019-05-01T10:45:06.208Z,12.13
2019-05-01T10:47:35.008Z,11.53
2019-05-01T10:50:04.065Z,11.80
2019-05-01T10:52:32.819Z,11.43
2019-05-01T10:55:01.507Z,12.23
2019-05-01T10:57:35.028Z,11.93
2019-05-01T11:00:01.273Z,11.60
2019-05-01T11:02:29.966Z,10.97
2019-05-01T11:04:58.778Z,11.30
2019-05-01T11:07:27.451Z,11.40
2019-05-01T11:09:56.183Z,9.83
2019-05-01T11:12:24.866Z,10.70
2019-05-01T11:14:53.559Z,11.33
2019-05-01T11:17:22.449Z,10.80
2019-05-01T11:19:51.079Z,10.63
2019-05-01T11:22:19.849Z,10.33
2019-05-01T11:24:48.572Z,10.53
2019-05-01T11:27:17.362Z,9.80
2019-05-01T11:29:46.059Z,10.00
2019-05-01T11:32:16.304Z,9.60
2019-05-01T11:34:49.349Z,10.10
2019-05-01T11:37:34.773Z,9.30
2019-05-01T11:40:06.016Z,9.33
2019-05-01T11:42:34.799Z,8.93
2019-05-01T11:45:05.166Z,8.57
2019-05-01T11:47:33.828Z,8.80
2019-05-01T11:50:02.532Z,8.73
2019-05-01T11:52:31.148Z,9.10
2019-05-01T11:54:59.869Z,8.43
2019-05-01T11:57:28.543Z,8.60
2019-05-01T11:59:57.213Z,8.30
2019-05-01T12:02:25.924Z,8.40
2019-05-01T12:04:54.606Z,8.47
2019-05-01T12:07:23.217Z,8.20
2019-05-01T12:09:51.830Z,8.70
2019-05-01T12:12:22.171Z,8.37
2019-05-01T12:14:50.795Z,8.63
2019-05-01T12:17:21.067Z,9.10
2019-05-01T12:19:49.736Z,8.60
2019-05-01T12:22:18.345Z,8.70
2019-05-01T12:24:46.979Z,8.20
2019-05-01T12:27:15.663Z,7.70
2019-05-01T12:29:44.372Z,7.87
2019-05-01T12:32:13.163Z,7.43
2019-05-01T12:34:41.896Z,8.00
2019-05-01T12:37:21.371Z,7.57
2019-05-01T12:39:50.079Z,7.30
2019-05-01T12:42:20.311Z,6.93
2019-05-01T12:44:48.943Z,6.77
2019-05-01T12:47:19.251Z,6.93
2019-05-01T12:49:49.532Z,7.00
2019-05-01T12:52:19.764Z,6.53
2019-05-01T12:54:52.679Z,6.70
2019-05-01T12:57:21.381Z,6.90
2019-05-01T12:59:49.982Z,6.47
2019-05-01T13:02:18.771Z,5.97
2019-05-01T13:04:47.420Z,6.63
2019-05-01T13:07:16.416Z,7.50
2019-05-01T13:09:45.023Z,6.60
2019-05-01T13:12:13.800Z,6.78
2019-05-01T13:14:42.432Z,6.35
2019-05-01T13:17:11.033Z,6.30
2019-05-01T13:19:39.741Z,6.25
2019-05-01T13:22:08.430Z,6.08
2019-05-01T13:24:38.762Z,6.37
2019-05-01T13:27:15.416Z,6.17
2019-05-01T13:29:57.996Z,5.65
2019-05-01T13:32:43.522Z,5.30
2019-05-01T13:35:12.544Z,5.30
2019-05-01T13:37:41.229Z,5.62
2019-05-01T13:40:10.750Z,5.65
2019-05-01T13:42:39.355Z,5.87
2019-05-01T13:45:08.744Z,5.65
2019-05-01T13:47:37.568Z,5.62
2019-05-01T13:50:10.306Z,5.15
2019-05-01T13:52:38.950Z,5.53
2019-05-01T13:55:08.053Z,5.10
2019-05-01T13:57:36.824Z,5.40
2019-05-01T14:00:08.863Z,5.78
2019-05-01T14:02:37.628Z,6.03
2019-05-01T14:05:06.269Z,5.97
2019-05-01T14:07:35.040Z,5.50
2019-05-01T14:10:04.639Z,5.50
2019-05-01T14:12:33.336Z,5.47
2019-05-01T14:15:02.050Z,5.47
2019-05-01T14:17:30.891Z,6.75
2019-05-01T14:20:06.904Z,6.25
2019-05-01T14:22:43.213Z,5.75
2019-05-01T14:25:16.970Z,6.20
2019-05-01T14:27:48.590Z,6.00
2019-05-01T14:30:17.569Z,6.27
2019-05-01T14:32:46.289Z,6.27
2019-05-01T14:35:15.468Z,6.17
2019-05-01T14:37:44.200Z,6.07
2019-05-01T14:40:12.859Z,6.03
2019-05-01T14:42:41.557Z,6.90
2019-05-01T14:45:10.912Z,7.03
2019-05-01T14:47:39.599Z,6.73
2019-05-01T14:50:08.463Z,6.40
2019-05-01T14:52:37.074Z,6.10
2019-05-01T14:55:08.281Z,6.27
2019-05-01T14:57:37.032Z,7.20
2019-05-01T15:00:09.114Z,6.97
2019-05-01T15:02:37.772Z,7.20
2019-05-01T15:05:07.388Z,6.87
2019-05-01T15:07:43.319Z,6.50
2019-05-01T15:10:07.012Z,6.50
2019-05-01T15:12:35.696Z,6.93
2019-05-01T15:15:25.239Z,6.57
2019-05-01T15:17:55.571Z,6.03
2019-05-01T15:20:24.351Z,6.00
2019-05-01T15:22:52.967Z,6.00
2019-05-01T15:25:21.632Z,6.43
2019-05-01T15:27:50.399Z,6.30
2019-05-01T15:30:19.268Z,6.17
2019-05-01T15:32:47.943Z,6.77
2019-05-01T15:35:16.626Z,6.47
2019-05-01T15:37:56.086Z,8.73
2019-05-01T15:40:20.120Z,6.60
2019-05-01T15:42:56.442Z,6.27
2019-05-01T15:45:25.127Z,6.03
2019-05-01T15:47:53.829Z,6.43
2019-05-01T15:50:22.498Z,5.97
2019-05-01T15:52:51.190Z,6.80
2019-05-01T15:55:19.893Z,7.10
2019-05-01T15:57:48.494Z,6.57
2019-05-01T16:00:19.590Z,6.53
2019-05-01T16:02:48.330Z,6.50
2019-05-01T16:05:17.062Z,6.00
2019-05-01T16:07:45.791Z,6.40
2019-05-01T16:10:16.846Z,6.33
2019-05-01T16:12:47.148Z,7.13
2019-05-01T16:15:17.407Z,7.13
2019-05-01T16:17:46.088Z,7.77
2019-05-01T16:20:16.900Z,6.20
2019-05-01T16:22:45.227Z,6.17
2019-05-01T16:25:14.087Z,6.17
2019-05-01T16:27:42.687Z,6.40
2019-05-01T16:30:13.081Z,6.23
2019-05-01T16:32:41.769Z,6.47
2019-05-01T16:35:10.368Z,6.70
2019-05-01T16:37:39.062Z,6.20
2019-05-01T16:40:21.445Z,7.43
2019-05-01T16:42:50.152Z,6.17
2019-05-01T16:45:18.947Z,6.83
2019-05-01T16:47:47.546Z,6.30
2019-05-01T16:50:16.928Z,6.17
2019-05-01T16:52:45.821Z,6.30
2019-05-01T16:55:14.986Z,6.10
2019-05-01T16:57:44.551Z,7.10
2019-05-01T17:00:14.385Z,6.33
2019-05-01T17:03:01.323Z,6.63
2019-05-01T17:05:43.655Z,6.87
2019-05-01T17:08:13.972Z,8.37
2019-05-01T17:10:47.002Z,7.53
2019-05-01T17:13:16.032Z,8.60
2019-05-01T17:15:46.350Z,8.60
2019-05-01T17:18:15.070Z,7.43
2019-05-01T17:20:43.802Z,7.57
2019-05-01T17:23:12.494Z,7.80
2019-05-01T17:25:41.302Z,7.17
2019-05-01T17:28:10.052Z,7.80
2019-05-01T17:30:41.248Z,7.70
2019-05-01T17:33:10.119Z,7.10
2019-05-01T17:35:41.766Z,7.47
2019-05-01T17:38:09.141Z,7.70
2019-05-01T17:40:39.338Z,7.50
2019-05-01T17:43:12.814Z,8.13
2019-05-01T17:45:38.372Z,7.73
2019-05-01T17:48:07.075Z,7.23
2019-05-01T17:50:35.783Z,7.47
2019-05-01T17:53:04.644Z,7.37
2019-05-01T17:55:33.343Z,7.17
2019-05-01T17:58:02.077Z,6.70
2019-05-01T18:00:38.233Z,6.80
2019-05-01T18:03:11.760Z,7.40
2019-05-01T18:06:01.279Z,7.23
2019-05-01T18:08:30.631Z,7.40
2019-05-01T18:10:59.382Z,8.07
2019-05-01T18:13:27.995Z,8.23
2019-05-01T18:15:56.763Z,7.57
2019-05-01T18:18:25.463Z,7.77
2019-05-01T18:20:54.136Z,8.00
2019-05-01T18:23:42.785Z,8.03
2019-05-01T18:26:21.213Z,7.63
2019-05-01T18:28:51.554Z,7.53
2019-05-01T18:31:28.010Z,8.00
2019-05-01T18:34:02.382Z,8.17
2019-05-01T18:36:30.101Z,7.50
2019-05-01T18:39:16.296Z,7.43
2019-05-01T18:41:41.214Z,7.83
2019-05-01T18:44:11.274Z,8.07
2019-05-01T18:46:40.147Z,7.43
2019-05-01T18:49:08.838Z,7.57
2019-05-01T18:51:40.645Z,7.60
2019-05-01T18:54:07.830Z,7.73
2019-05-01T18:56:38.142Z,7.87
2019-05-01T18:59:07.456Z,9.10
2019-05-01T19:01:36.173Z,9.17
2019-05-01T19:04:06.322Z,9.20
2019-05-01T19:06:41.779Z,10.27
2019-05-01T19:09:14.800Z,10.60
2019-05-01T19:11:38.873Z,10.77
2019-05-01T19:14:08.751Z,12.00
2019-05-01T19:16:39.980Z,13.43
2019-05-01T19:19:07.685Z,13.57
2019-05-01T19:21:41.911Z,14.17
2019-05-01T19:24:08.655Z,15.33
2019-05-01T19:26:38.177Z,15.00
2019-05-01T19:29:07.919Z,16.00
2019-05-01T19:31:36.668Z,15.40
2019-05-01T19:34:05.491Z,16.10
2019-05-01T19:36:34.347Z,16.30
2019-05-01T19:39:06.804Z,16.67
2019-05-01T19:41:36.588Z,17.17
2019-05-01T19:44:05.667Z,16.23
2019-05-01T19:46:34.383Z,15.70
2019-05-01T19:49:03.233Z,16.90
2019-05-01T19:51:32.339Z,15.87
2019-05-01T19:54:01.095Z,16.30
2019-05-01T19:56:29.942Z,16.40
2019-05-01T19:58:58.668Z,16.07
2019-05-01T20:01:27.305Z,16.50
2019-05-01T20:03:56.013Z,16.60
2019-05-01T20:06:24.726Z,16.70
2019-05-01T20:08:53.708Z,16.83
2019-05-01T20:11:22.483Z,17.97
2019-05-01T20:13:51.148Z,18.13
2019-05-01T20:16:21.156Z,18.70
2019-05-01T20:18:49.851Z,18.50
2019-05-01T20:21:18.597Z,18.17
2019-05-01T20:23:47.345Z,18.17
2019-05-01T20:26:15.948Z,18.10
2019-05-01T20:28:44.602Z,18.73
2019-05-01T20:31:14.651Z,19.73
2019-05-01T20:33:44.508Z,20.23
2019-05-01T20:36:13.536Z,19.70
2019-05-01T20:38:42.266Z,19.90
2019-05-01T20:41:16.018Z,20.37
2019-05-01T20:43:43.335Z,20.30
2019-05-01T20:46:11.747Z,19.93
2019-05-01T20:48:40.461Z,20.33
2019-05-01T20:51:09.101Z,20.73
2019-05-01T20:53:37.868Z,21.50
2019-05-01T20:56:17.181Z,21.07
2019-05-01T20:58:46.054Z,22.57
2019-05-01T21:01:14.843Z,22.07
2019-05-01T21:03:45.178Z,22.83
2019-05-01T21:06:27.846Z,22.10
2019-05-01T21:08:56.595Z,22.23
2019-05-01T21:11:27.108Z,22.60
2019-05-01T21:14:14.821Z,22.60
2019-05-01T21:16:26.198Z,22.30
2019-05-01T21:18:55.003Z,22.73
2019-05-01T21:21:24.142Z,22.30
2019-05-01T21:23:56.662Z,22.47
2019-05-01T21:26:23.514Z,22.63
2019-05-01T21:28:54.018Z,22.07
2019-05-01T21:31:24.012Z,22.13
2019-05-01T21:33:53.602Z,21.67
2019-05-01T21:36:22.423Z,23.23
2019-05-01T21:38:51.022Z,23.43
2019-05-01T21:41:19.630Z,23.27
2019-05-01T21:43:48.344Z,22.57
2019-05-01T21:46:17.003Z,23.90
2019-05-01T21:48:45.662Z,24.40
2019-05-01T21:51:14.286Z,23.90
2019-05-01T21:53:46.361Z,24.00
2019-05-01T21:56:16.310Z,24.77
2019-05-01T21:58:45.294Z,24.80
2019-05-01T22:01:14.099Z,24.23
2019-05-01T22:03:42.803Z,24.77
2019-05-01T22:06:15.431Z,26.17
2019-05-01T22:08:41.786Z,25.87
2019-05-01T22:11:10.569Z,26.40
2019-05-01T22:13:39.249Z,25.07
2019-05-01T22:16:18.469Z,25.40
2019-05-01T22:18:50.767Z,24.70
2019-05-01T22:21:26.982Z,25.93
2019-05-01T22:24:13.373Z,25.37
2019-05-01T22:26:46.486Z,25.03
2019-05-01T22:29:19.458Z,25.50
2019-05-01T22:32:04.905Z,25.37
2019-05-01T22:34:35.254Z,25.60
2019-05-01T22:37:03.946Z,24.77
2019-05-01T22:39:34.294Z,25.53
2019-05-01T22:42:02.971Z,25.30
2019-05-01T22:44:31.974Z,25.90
2019-05-01T22:47:00.645Z,25.07
2019-05-01T22:49:29.282Z,25.57
2019-05-01T22:51:57.967Z,25.10
2019-05-01T22:54:26.667Z,26.17
2019-05-01T22:56:55.277Z,26.40
2019-05-01T22:59:23.914Z,26.77
2019-05-01T23:01:54.249Z,25.97
2019-05-01T23:04:23.007Z,26.20
2019-05-01T23:06:51.614Z,25.80
2019-05-01T23:09:27.866Z,25.70
2019-05-01T23:11:53.735Z,25.47
2019-05-01T23:14:23.143Z,26.37
2019-05-01T23:16:53.459Z,24.63
2019-05-01T23:19:22.749Z,25.67
2019-05-01T23:21:52.652Z,25.90
2019-05-01T23:24:21.463Z,25.83
2019-05-01T23:26:51.840Z,25.73
2019-05-01T23:29:20.649Z,25.60
2019-05-01T23:31:49.283Z,26.93
2019-05-01T23:34:21.075Z,26.13
2019-05-01T23:36:48.419Z,25.50
2019-05-01T23:39:17.114Z,26.37
2019-05-01T23:41:47.403Z,25.97
2019-05-01T23:44:16.024Z,26.60
2019-05-01T23:46:44.718Z,26.97
2019-05-01T23:49:13.347Z,26.60
2019-05-01T23:51:42.058Z,26.60
2019-05-01T23:54:10.695Z,27.33
2019-05-01T23:56:39.301Z,26.77
2019-05-01T23:59:07.948Z,25.83
